sensor_id;sensor_type;location;lat;lon;timestamp;P1;durP1;ratioP1;P2;durP2;ratioP2
6053;SDS011;3055;50.886;14.814;2023-04-03T00:00:28;3.53;;;2.63;;
6053;SDS011;3055;50.886;14.814;2023-04-03T00:02:55;3.77;;;2.40;;
6053;SDS011;3055;50.886;14.814;2023-04-03T00:05:22;4.93;;;2.80;;
6053;SDS011;3055;50.886;14.814;2023-04-03T00:07:49;5.03;;;3.17;;
6053;SDS011;3055;50.886;14.814;2023-04-03T00:10:18;4.50;;;2.70;;
6053;SDS011;3055;50.886;14.814;2023-04-03T00:12:45;4.97;;;3.37;;
6053;SDS011;3055;50.886;14.814;2023-04-03T00:15:12;6.10;;;2.60;;
6053;SDS011;3055;50.886;14.814;2023-04-03T00:17:39;4.93;;;3.03;;
6053;SDS011;3055;50.886;14.814;2023-04-03T00:20:07;3.67;;;2.60;;
6053;SDS011;3055;50.886;14.814;2023-04-03T00:22:34;5.30;;;2.93;;
6053;SDS011;3055;50.886;14.814;2023-04-03T00:25:01;5.17;;;3.00;;
6053;SDS011;3055;50.886;14.814;2023-04-03T00:27:30;3.03;;;2.60;;
6053;SDS011;3055;50.886;14.814;2023-04-03T00:29:57;7.63;;;2.60;;
6053;SDS011;3055;50.886;14.814;2023-04-03T00:32:24;4.97;;;2.93;;
6053;SDS011;3055;50.886;14.814;2023-04-03T00:34:51;4.00;;;2.60;;
6053;SDS011;3055;50.886;14.814;2023-04-03T00:37:18;6.77;;;2.50;;
6053;SDS011;3055;50.886;14.814;2023-04-03T00:39:45;3.40;;;2.47;;
6053;SDS011;3055;50.886;14.814;2023-04-03T00:42:12;3.33;;;2.30;;
6053;SDS011;3055;50.886;14.814;2023-04-03T00:47:45;4.03;;;2.57;;
6053;SDS011;3055;50.886;14.814;2023-04-03T00:50:12;4.87;;;2.50;;
6053;SDS011;3055;50.886;14.814;2023-04-03T00:52:39;3.63;;;2.20;;
6053;SDS011;3055;50.886;14.814;2023-04-03T00:55:07;5.90;;;2.67;;
6053;SDS011;3055;50.886;14.814;2023-04-03T00:57:35;4.03;;;2.67;;
6053;SDS011;3055;50.886;14.814;2023-04-03T01:00:04;5.37;;;2.27;;
6053;SDS011;3055;50.886;14.814;2023-04-03T01:02:34;3.73;;;2.50;;
6053;SDS011;3055;50.886;14.814;2023-04-03T01:05:03;4.73;;;2.50;;
6053;SDS011;3055;50.886;14.814;2023-04-03T01:07:31;3.67;;;2.60;;
6053;SDS011;3055;50.886;14.814;2023-04-03T01:09:59;2.93;;;2.30;;
6053;SDS011;3055;50.886;14.814;2023-04-03T01:12:29;2.97;;;2.77;;
6053;SDS011;3055;50.886;14.814;2023-04-03T01:14:58;3.67;;;2.93;;
6053;SDS011;3055;50.886;14.814;2023-04-03T01:17:27;3.87;;;2.40;;
6053;SDS011;3055;50.886;14.814;2023-04-03T01:20:00;4.13;;;2.47;;
6053;SDS011;3055;50.886;14.814;2023-04-03T01:22:44;3.23;;;2.17;;
6053;SDS011;3055;50.886;14.814;2023-04-03T01:25:17;3.57;;;2.17;;
6053;SDS011;3055;50.886;14.814;2023-04-03T01:27:45;7.47;;;2.57;;
6053;SDS011;3055;50.886;14.814;2023-04-03T01:30:12;4.17;;;2.40;;
6053;SDS011;3055;50.886;14.814;2023-04-03T01:32:44;3.47;;;2.20;;
6053;SDS011;3055;50.886;14.814;2023-04-03T01:35:11;7.57;;;2.43;;
6053;SDS011;3055;50.886;14.814;2023-04-03T01:37:39;3.27;;;2.30;;
6053;SDS011;3055;50.886;14.814;2023-04-03T01:40:06;4.10;;;3.07;;
6053;SDS011;3055;50.886;14.814;2023-04-03T01:42:34;4.50;;;2.77;;
6053;SDS011;3055;50.886;14.814;2023-04-03T01:45:01;3.63;;;2.50;;
6053;SDS011;3055;50.886;14.814;2023-04-03T01:47:28;3.43;;;2.50;;
6053;SDS011;3055;50.886;14.814;2023-04-03T01:49:57;3.07;;;2.80;;
6053;SDS011;3055;50.886;14.814;2023-04-03T01:52:24;3.43;;;2.93;;
6053;SDS011;3055;50.886;14.814;2023-04-03T01:54:51;4.10;;;2.77;;
6053;SDS011;3055;50.886;14.814;2023-04-03T01:57:18;4.60;;;2.80;;
6053;SDS011;3055;50.886;14.814;2023-04-03T01:59:45;3.30;;;2.50;;
6053;SDS011;3055;50.886;14.814;2023-04-03T02:02:12;3.97;;;2.70;;
6053;SDS011;3055;50.886;14.814;2023-04-03T02:04:40;7.20;;;3.07;;
6053;SDS011;3055;50.886;14.814;2023-04-03T02:07:08;5.37;;;2.80;;
6053;SDS011;3055;50.886;14.814;2023-04-03T02:09:35;3.03;;;2.67;;
6053;SDS011;3055;50.886;14.814;2023-04-03T02:12:02;6.17;;;2.50;;
6053;SDS011;3055;50.886;14.814;2023-04-03T02:14:29;4.87;;;2.90;;
6053;SDS011;3055;50.886;14.814;2023-04-03T02:16:56;2.60;;;2.33;;
6053;SDS011;3055;50.886;14.814;2023-04-03T02:19:23;3.87;;;2.93;;
6053;SDS011;3055;50.886;14.814;2023-04-03T02:21:50;3.80;;;2.70;;
6053;SDS011;3055;50.886;14.814;2023-04-03T02:24:19;7.73;;;3.03;;
6053;SDS011;3055;50.886;14.814;2023-04-03T02:26:46;8.07;;;2.60;;
6053;SDS011;3055;50.886;14.814;2023-04-03T02:29:13;5.90;;;2.63;;
6053;SDS011;3055;50.886;14.814;2023-04-03T02:31:40;4.93;;;2.97;;
6053;SDS011;3055;50.886;14.814;2023-04-03T02:34:07;5.30;;;2.70;;
6053;SDS011;3055;50.886;14.814;2023-04-03T02:36:34;3.53;;;2.30;;
6053;SDS011;3055;50.886;14.814;2023-04-03T02:39:01;3.13;;;2.90;;
6053;SDS011;3055;50.886;14.814;2023-04-03T02:41:30;4.07;;;2.77;;
6053;SDS011;3055;50.886;14.814;2023-04-03T02:44:00;3.97;;;2.43;;
6053;SDS011;3055;50.886;14.814;2023-04-03T02:46:27;3.87;;;2.30;;
6053;SDS011;3055;50.886;14.814;2023-04-03T02:48:54;4.67;;;2.63;;
6053;SDS011;3055;50.886;14.814;2023-04-03T02:51:21;2.80;;;2.60;;
6053;SDS011;3055;50.886;14.814;2023-04-03T02:53:49;3.17;;;2.53;;
6053;SDS011;3055;50.886;14.814;2023-04-03T02:56:16;7.17;;;3.07;;
6053;SDS011;3055;50.886;14.814;2023-04-03T02:58:46;5.07;;;2.37;;
6053;SDS011;3055;50.886;14.814;2023-04-03T03:01:14;7.10;;;2.67;;
6053;SDS011;3055;50.886;14.814;2023-04-03T03:03:41;3.73;;;2.50;;
6053;SDS011;3055;50.886;14.814;2023-04-03T03:06:09;8.17;;;2.80;;
6053;SDS011;3055;50.886;14.814;2023-04-03T03:08:37;5.30;;;2.97;;
6053;SDS011;3055;50.886;14.814;2023-04-03T03:11:05;4.23;;;2.50;;
6053;SDS011;3055;50.886;14.814;2023-04-03T03:13:32;3.10;;;2.47;;
6053;SDS011;3055;50.886;14.814;2023-04-03T03:16:01;3.37;;;2.57;;
6053;SDS011;3055;50.886;14.814;2023-04-03T03:18:29;4.00;;;2.30;;
6053;SDS011;3055;50.886;14.814;2023-04-03T03:20:57;4.53;;;2.83;;
6053;SDS011;3055;50.886;14.814;2023-04-03T03:23:26;5.73;;;2.80;;
6053;SDS011;3055;50.886;14.814;2023-04-03T03:25:54;3.20;;;2.30;;
6053;SDS011;3055;50.886;14.814;2023-04-03T03:28:22;3.57;;;3.00;;
6053;SDS011;3055;50.886;14.814;2023-04-03T03:30:49;4.07;;;2.80;;
6053;SDS011;3055;50.886;14.814;2023-04-03T03:33:18;4.17;;;2.77;;
6053;SDS011;3055;50.886;14.814;2023-04-03T03:35:45;3.40;;;3.10;;
6053;SDS011;3055;50.886;14.814;2023-04-03T03:38:12;3.73;;;2.63;;
6053;SDS011;3055;50.886;14.814;2023-04-03T03:40:39;5.07;;;2.63;;
6053;SDS011;3055;50.886;14.814;2023-04-03T03:43:06;3.83;;;3.20;;
6053;SDS011;3055;50.886;14.814;2023-04-03T03:45:33;3.07;;;2.50;;
6053;SDS011;3055;50.886;14.814;2023-04-03T03:48:00;6.40;;;2.90;;
6053;SDS011;3055;50.886;14.814;2023-04-03T03:50:29;4.97;;;2.73;;
6053;SDS011;3055;50.886;14.814;2023-04-03T03:52:56;5.13;;;3.37;;
6053;SDS011;3055;50.886;14.814;2023-04-03T03:55:23;3.13;;;2.47;;
6053;SDS011;3055;50.886;14.814;2023-04-03T03:57:51;4.23;;;2.60;;
6053;SDS011;3055;50.886;14.814;2023-04-03T04:00:18;4.90;;;2.73;;
6053;SDS011;3055;50.886;14.814;2023-04-03T04:02:45;2.97;;;2.70;;
6053;SDS011;3055;50.886;14.814;2023-04-03T04:05:12;3.40;;;2.57;;
6053;SDS011;3055;50.886;14.814;2023-04-03T04:07:41;3.33;;;2.80;;
6053;SDS011;3055;50.886;14.814;2023-04-03T04:10:08;5.33;;;2.40;;
6053;SDS011;3055;50.886;14.814;2023-04-03T04:12:35;5.20;;;3.03;;
6053;SDS011;3055;50.886;14.814;2023-04-03T04:15:03;7.40;;;3.03;;
6053;SDS011;3055;50.886;14.814;2023-04-03T04:17:30;4.87;;;2.90;;
6053;SDS011;3055;50.886;14.814;2023-04-03T04:19:59;5.20;;;3.00;;
6053;SDS011;3055;50.886;14.814;2023-04-03T04:22:26;4.80;;;2.70;;
6053;SDS011;3055;50.886;14.814;2023-04-03T04:24:55;4.43;;;2.87;;
6053;SDS011;3055;50.886;14.814;2023-04-03T04:27:22;4.53;;;2.60;;
6053;SDS011;3055;50.886;14.814;2023-04-03T04:29:49;4.57;;;2.80;;
6053;SDS011;3055;50.886;14.814;2023-04-03T04:32:16;4.17;;;3.33;;
6053;SDS011;3055;50.886;14.814;2023-04-03T04:34:43;2.60;;;2.37;;
6053;SDS011;3055;50.886;14.814;2023-04-03T04:37:10;3.77;;;3.07;;
6053;SDS011;3055;50.886;14.814;2023-04-03T04:39:37;3.50;;;2.83;;
6053;SDS011;3055;50.886;14.814;2023-04-03T04:42:05;4.17;;;2.87;;
6053;SDS011;3055;50.886;14.814;2023-04-03T04:44:37;5.17;;;3.00;;
6053;SDS011;3055;50.886;14.814;2023-04-03T04:47:04;3.73;;;2.50;;
6053;SDS011;3055;50.886;14.814;2023-04-03T04:49:32;3.33;;;2.80;;
6053;SDS011;3055;50.886;14.814;2023-04-03T04:51:59;8.30;;;2.83;;
6053;SDS011;3055;50.886;14.814;2023-04-03T04:54:26;4.33;;;2.60;;
6053;SDS011;3055;50.886;14.814;2023-04-03T04:56:53;6.60;;;3.00;;
6053;SDS011;3055;50.886;14.814;2023-04-03T04:59:21;5.73;;;3.10;;
6053;SDS011;3055;50.886;14.814;2023-04-03T05:01:48;6.83;;;2.60;;
6053;SDS011;3055;50.886;14.814;2023-04-03T05:04:16;4.43;;;2.80;;
6053;SDS011;3055;50.886;14.814;2023-04-03T05:06:43;4.90;;;3.23;;
6053;SDS011;3055;50.886;14.814;2023-04-03T05:09:10;3.73;;;2.93;;
6053;SDS011;3055;50.886;14.814;2023-04-03T05:11:37;4.37;;;3.00;;
6053;SDS011;3055;50.886;14.814;2023-04-03T05:14:04;6.90;;;3.10;;
6053;SDS011;3055;50.886;14.814;2023-04-03T05:16:33;5.50;;;3.27;;
6053;SDS011;3055;50.886;14.814;2023-04-03T05:19:00;5.30;;;3.17;;
6053;SDS011;3055;50.886;14.814;2023-04-03T05:21:27;4.83;;;3.20;;
6053;SDS011;3055;50.886;14.814;2023-04-03T05:23:57;4.57;;;2.93;;
6053;SDS011;3055;50.886;14.814;2023-04-03T05:26:27;5.97;;;3.27;;
6053;SDS011;3055;50.886;14.814;2023-04-03T05:28:55;5.70;;;3.17;;
6053;SDS011;3055;50.886;14.814;2023-04-03T05:31:22;6.67;;;3.20;;
6053;SDS011;3055;50.886;14.814;2023-04-03T05:33:50;5.57;;;3.30;;
6053;SDS011;3055;50.886;14.814;2023-04-03T05:36:18;8.17;;;3.40;;
6053;SDS011;3055;50.886;14.814;2023-04-03T05:38:45;7.70;;;3.67;;
6053;SDS011;3055;50.886;14.814;2023-04-03T05:41:12;3.17;;;2.87;;
6053;SDS011;3055;50.886;14.814;2023-04-03T05:43:39;3.53;;;3.10;;
6053;SDS011;3055;50.886;14.814;2023-04-03T05:46:09;3.27;;;2.83;;
6053;SDS011;3055;50.886;14.814;2023-04-03T05:48:37;4.20;;;3.40;;
6053;SDS011;3055;50.886;14.814;2023-04-03T05:51:06;6.50;;;3.10;;
6053;SDS011;3055;50.886;14.814;2023-04-03T05:53:36;4.90;;;2.77;;
6053;SDS011;3055;50.886;14.814;2023-04-03T05:56:03;4.13;;;2.80;;
6053;SDS011;3055;50.886;14.814;2023-04-03T05:58:30;3.57;;;3.27;;
6053;SDS011;3055;50.886;14.814;2023-04-03T06:00:57;6.43;;;3.43;;
6053;SDS011;3055;50.886;14.814;2023-04-03T06:03:25;4.80;;;3.60;;
6053;SDS011;3055;50.886;14.814;2023-04-03T06:05:52;4.47;;;3.50;;
6053;SDS011;3055;50.886;14.814;2023-04-03T06:08:20;4.97;;;3.50;;
6053;SDS011;3055;50.886;14.814;2023-04-03T06:10:48;8.23;;;3.67;;
6053;SDS011;3055;50.886;14.814;2023-04-03T06:13:16;6.40;;;3.60;;
6053;SDS011;3055;50.886;14.814;2023-04-03T06:15:43;5.80;;;3.30;;
6053;SDS011;3055;50.886;14.814;2023-04-03T06:18:11;10.90;;;3.80;;
6053;SDS011;3055;50.886;14.814;2023-04-03T06:20:38;4.37;;;3.73;;
6053;SDS011;3055;50.886;14.814;2023-04-03T06:23:05;5.43;;;3.20;;
6053;SDS011;3055;50.886;14.814;2023-04-03T06:25:34;7.67;;;3.87;;
6053;SDS011;3055;50.886;14.814;2023-04-03T06:28:01;10.60;;;3.70;;
6053;SDS011;3055;50.886;14.814;2023-04-03T06:30:28;5.27;;;3.23;;
6053;SDS011;3055;50.886;14.814;2023-04-03T06:32:55;8.07;;;3.13;;
6053;SDS011;3055;50.886;14.814;2023-04-03T06:35:24;5.43;;;3.23;;
6053;SDS011;3055;50.886;14.814;2023-04-03T06:37:53;5.00;;;3.80;;
6053;SDS011;3055;50.886;14.814;2023-04-03T06:40:21;15.13;;;6.33;;
6053;SDS011;3055;50.886;14.814;2023-04-03T06:42:51;6.63;;;3.90;;
6053;SDS011;3055;50.886;14.814;2023-04-03T06:45:18;8.00;;;5.40;;
6053;SDS011;3055;50.886;14.814;2023-04-03T06:47:46;9.80;;;4.40;;
6053;SDS011;3055;50.886;14.814;2023-04-03T06:50:13;7.90;;;3.97;;
6053;SDS011;3055;50.886;14.814;2023-04-03T06:52:41;6.97;;;3.67;;
6053;SDS011;3055;50.886;14.814;2023-04-03T06:55:08;6.27;;;3.83;;
6053;SDS011;3055;50.886;14.814;2023-04-03T06:57:36;4.93;;;3.87;;
6053;SDS011;3055;50.886;14.814;2023-04-03T07:00:06;4.63;;;3.50;;
6053;SDS011;3055;50.886;14.814;2023-04-03T07:02:35;6.97;;;3.50;;
6053;SDS011;3055;50.886;14.814;2023-04-03T07:05:02;6.63;;;3.80;;
6053;SDS011;3055;50.886;14.814;2023-04-03T07:07:29;5.50;;;3.70;;
6053;SDS011;3055;50.886;14.814;2023-04-03T07:09:58;6.40;;;3.73;;
6053;SDS011;3055;50.886;14.814;2023-04-03T07:12:25;6.60;;;3.50;;
6053;SDS011;3055;50.886;14.814;2023-04-03T07:14:52;7.53;;;3.53;;
6053;SDS011;3055;50.886;14.814;2023-04-03T07:17:20;5.37;;;3.33;;
6053;SDS011;3055;50.886;14.814;2023-04-03T07:19:47;5.07;;;3.80;;
6053;SDS011;3055;50.886;14.814;2023-04-03T07:22:15;9.33;;;4.93;;
6053;SDS011;3055;50.886;14.814;2023-04-03T07:24:42;6.43;;;4.43;;
6053;SDS011;3055;50.886;14.814;2023-04-03T07:27:09;6.20;;;4.07;;
6053;SDS011;3055;50.886;14.814;2023-04-03T07:29:37;6.50;;;4.63;;
6053;SDS011;3055;50.886;14.814;2023-04-03T07:32:05;8.87;;;4.00;;
6053;SDS011;3055;50.886;14.814;2023-04-03T07:34:33;7.57;;;3.80;;
6053;SDS011;3055;50.886;14.814;2023-04-03T07:37:00;5.97;;;4.03;;
6053;SDS011;3055;50.886;14.814;2023-04-03T07:39:28;8.43;;;3.53;;
6053;SDS011;3055;50.886;14.814;2023-04-03T07:41:55;7.43;;;3.87;;
6053;SDS011;3055;50.886;14.814;2023-04-03T07:44:22;5.53;;;3.67;;
6053;SDS011;3055;50.886;14.814;2023-04-03T07:46:49;5.30;;;4.27;;
6053;SDS011;3055;50.886;14.814;2023-04-03T07:49:16;7.13;;;4.07;;
6053;SDS011;3055;50.886;14.814;2023-04-03T07:51:45;6.73;;;3.77;;
6053;SDS011;3055;50.886;14.814;2023-04-03T07:54:13;7.23;;;3.13;;
6053;SDS011;3055;50.886;14.814;2023-04-03T07:56:40;4.27;;;3.77;;
6053;SDS011;3055;50.886;14.814;2023-04-03T07:59:09;6.87;;;3.20;;
6053;SDS011;3055;50.886;14.814;2023-04-03T08:01:36;6.20;;;3.03;;
6053;SDS011;3055;50.886;14.814;2023-04-03T08:04:03;6.23;;;3.77;;
6053;SDS011;3055;50.886;14.814;2023-04-03T08:06:31;5.33;;;3.27;;
6053;SDS011;3055;50.886;14.814;2023-04-03T08:09:02;4.10;;;3.10;;
6053;SDS011;3055;50.886;14.814;2023-04-03T08:11:30;5.37;;;3.20;;
6053;SDS011;3055;50.886;14.814;2023-04-03T08:13:57;5.80;;;3.07;;
6053;SDS011;3055;50.886;14.814;2023-04-03T08:16:24;6.27;;;3.47;;
6053;SDS011;3055;50.886;14.814;2023-04-03T08:18:52;6.00;;;3.27;;
6053;SDS011;3055;50.886;14.814;2023-04-03T08:21:20;9.00;;;3.33;;
6053;SDS011;3055;50.886;14.814;2023-04-03T08:23:47;4.27;;;2.90;;
6053;SDS011;3055;50.886;14.814;2023-04-03T08:26:17;4.73;;;2.80;;
6053;SDS011;3055;50.886;14.814;2023-04-03T08:28:46;3.40;;;2.60;;
6053;SDS011;3055;50.886;14.814;2023-04-03T08:31:14;6.40;;;3.00;;
6053;SDS011;3055;50.886;14.814;2023-04-03T08:33:43;4.23;;;3.20;;
6053;SDS011;3055;50.886;14.814;2023-04-03T08:36:16;8.10;;;3.33;;
6053;SDS011;3055;50.886;14.814;2023-04-03T08:38:44;6.27;;;2.90;;
6053;SDS011;3055;50.886;14.814;2023-04-03T08:41:14;4.27;;;2.73;;
6053;SDS011;3055;50.886;14.814;2023-04-03T08:43:47;4.20;;;2.67;;
6053;SDS011;3055;50.886;14.814;2023-04-03T08:46:24;3.13;;;2.57;;
6053;SDS011;3055;50.886;14.814;2023-04-03T08:49:00;4.00;;;2.47;;
6053;SDS011;3055;50.886;14.814;2023-04-03T08:51:27;3.33;;;2.40;;
6053;SDS011;3055;50.886;14.814;2023-04-03T08:53:56;3.50;;;2.10;;
6053;SDS011;3055;50.886;14.814;2023-04-03T08:56:27;4.13;;;2.33;;
6053;SDS011;3055;50.886;14.814;2023-04-03T08:58:58;3.97;;;2.20;;
6053;SDS011;3055;50.886;14.814;2023-04-03T09:01:33;4.63;;;2.37;;
6053;SDS011;3055;50.886;14.814;2023-04-03T09:04:02;5.83;;;2.63;;
6053;SDS011;3055;50.886;14.814;2023-04-03T09:06:36;2.90;;;2.30;;
6053;SDS011;3055;50.886;14.814;2023-04-03T09:09:07;4.53;;;2.70;;
6053;SDS011;3055;50.886;14.814;2023-04-03T09:11:43;2.67;;;2.43;;
6053;SDS011;3055;50.886;14.814;2023-04-03T09:14:19;7.60;;;2.97;;
6053;SDS011;3055;50.886;14.814;2023-04-03T09:16:52;6.33;;;2.33;;
6053;SDS011;3055;50.886;14.814;2023-04-03T09:19:25;6.00;;;3.00;;
6053;SDS011;3055;50.886;14.814;2023-04-03T09:22:11;4.53;;;2.60;;
6053;SDS011;3055;50.886;14.814;2023-04-03T09:24:43;3.50;;;1.80;;
6053;SDS011;3055;50.886;14.814;2023-04-03T09:27:13;2.53;;;2.27;;
6053;SDS011;3055;50.886;14.814;2023-04-03T09:29:43;4.00;;;2.10;;
6053;SDS011;3055;50.886;14.814;2023-04-03T09:34:57;5.57;;;2.17;;
6053;SDS011;3055;50.886;14.814;2023-04-03T09:37:36;4.70;;;2.60;;
6053;SDS011;3055;50.886;14.814;2023-04-03T09:40:05;4.93;;;2.50;;
6053;SDS011;3055;50.886;14.814;2023-04-03T09:42:55;6.50;;;3.57;;
6053;SDS011;3055;50.886;14.814;2023-04-03T09:45:24;10.23;;;5.53;;
6053;SDS011;3055;50.886;14.814;2023-04-03T09:48:04;13.97;;;8.37;;
6053;SDS011;3055;50.886;14.814;2023-04-03T09:50:33;5.60;;;3.13;;
6053;SDS011;3055;50.886;14.814;2023-04-03T09:53:04;4.40;;;3.43;;
6053;SDS011;3055;50.886;14.814;2023-04-03T09:55:33;16.83;;;9.50;;
6053;SDS011;3055;50.886;14.814;2023-04-03T09:58:23;5.60;;;2.43;;
6053;SDS011;3055;50.886;14.814;2023-04-03T10:00:56;3.57;;;1.80;;
6053;SDS011;3055;50.886;14.814;2023-04-03T10:03:25;3.33;;;2.63;;
6053;SDS011;3055;50.886;14.814;2023-04-03T10:05:55;2.27;;;2.07;;
6053;SDS011;3055;50.886;14.814;2023-04-03T10:08:25;4.50;;;1.90;;
6053;SDS011;3055;50.886;14.814;2023-04-03T10:11:08;3.87;;;1.80;;
6053;SDS011;3055;50.886;14.814;2023-04-03T10:13:50;2.77;;;1.90;;
6053;SDS011;3055;50.886;14.814;2023-04-03T10:16:18;3.40;;;2.30;;
6053;SDS011;3055;50.886;14.814;2023-04-03T10:18:50;2.37;;;2.03;;
6053;SDS011;3055;50.886;14.814;2023-04-03T10:21:29;3.93;;;2.00;;
6053;SDS011;3055;50.886;14.814;2023-04-03T10:24:08;3.80;;;1.93;;
6053;SDS011;3055;50.886;14.814;2023-04-03T10:26:39;5.73;;;2.13;;
6053;SDS011;3055;50.886;14.814;2023-04-03T10:29:18;4.03;;;1.83;;
6053;SDS011;3055;50.886;14.814;2023-04-03T10:31:56;3.13;;;2.23;;
6053;SDS011;3055;50.886;14.814;2023-04-03T10:34:29;3.43;;;2.00;;
6053;SDS011;3055;50.886;14.814;2023-04-03T10:37:01;2.73;;;1.70;;
6053;SDS011;3055;50.886;14.814;2023-04-03T10:39:35;3.47;;;2.00;;
6053;SDS011;3055;50.886;14.814;2023-04-03T10:42:08;1.80;;;1.70;;
6053;SDS011;3055;50.886;14.814;2023-04-03T10:44:46;6.50;;;2.50;;
6053;SDS011;3055;50.886;14.814;2023-04-03T10:47:32;3.57;;;1.50;;
6053;SDS011;3055;50.886;14.814;2023-04-03T10:50:07;4.83;;;1.93;;
6053;SDS011;3055;50.886;14.814;2023-04-03T10:52:52;4.13;;;2.00;;
6053;SDS011;3055;50.886;14.814;2023-04-03T10:55:30;2.07;;;1.50;;
6053;SDS011;3055;50.886;14.814;2023-04-03T10:58:02;4.23;;;2.00;;
6053;SDS011;3055;50.886;14.814;2023-04-03T11:00:33;3.67;;;2.03;;
6053;SDS011;3055;50.886;14.814;2023-04-03T11:03:05;2.60;;;1.80;;
6053;SDS011;3055;50.886;14.814;2023-04-03T11:05:39;3.07;;;2.03;;
6053;SDS011;3055;50.886;14.814;2023-04-03T11:08:11;2.50;;;2.30;;
6053;SDS011;3055;50.886;14.814;2023-04-03T11:10:49;4.63;;;2.00;;
6053;SDS011;3055;50.886;14.814;2023-04-03T11:13:18;4.33;;;2.53;;
6053;SDS011;3055;50.886;14.814;2023-04-03T11:15:50;3.70;;;2.23;;
6053;SDS011;3055;50.886;14.814;2023-04-03T11:18:20;1.83;;;1.73;;
6053;SDS011;3055;50.886;14.814;2023-04-03T11:20:56;2.80;;;2.00;;
6053;SDS011;3055;50.886;14.814;2023-04-03T11:23:29;4.77;;;2.83;;
6053;SDS011;3055;50.886;14.814;2023-04-03T11:26:04;2.40;;;1.70;;
6053;SDS011;3055;50.886;14.814;2023-04-03T11:28:38;28.60;;;2.73;;
6053;SDS011;3055;50.886;14.814;2023-04-03T11:31:11;1.80;;;1.63;;
6053;SDS011;3055;50.886;14.814;2023-04-03T11:33:48;1.77;;;1.60;;
6053;SDS011;3055;50.886;14.814;2023-04-03T11:36:22;5.40;;;2.93;;
6053;SDS011;3055;50.886;14.814;2023-04-03T11:38:52;3.30;;;1.60;;
6053;SDS011;3055;50.886;14.814;2023-04-03T11:41:26;3.50;;;2.03;;
6053;SDS011;3055;50.886;14.814;2023-04-03T11:43:56;3.07;;;1.90;;
6053;SDS011;3055;50.886;14.814;2023-04-03T11:55:55;1.80;;;1.70;;
6053;SDS011;3055;50.886;14.814;2023-04-03T11:58:42;4.30;;;1.80;;
6053;SDS011;3055;50.886;14.814;2023-04-03T12:01:44;3.50;;;2.07;;
6053;SDS011;3055;50.886;14.814;2023-04-03T12:04:13;2.23;;;1.80;;
6053;SDS011;3055;50.886;14.814;2023-04-03T12:06:50;4.43;;;2.00;;
6053;SDS011;3055;50.886;14.814;2023-04-03T12:12:30;3.20;;;2.00;;
6053;SDS011;3055;50.886;14.814;2023-04-03T12:15:12;2.20;;;1.70;;
6053;SDS011;3055;50.886;14.814;2023-04-03T12:17:53;2.47;;;2.00;;
6053;SDS011;3055;50.886;14.814;2023-04-03T12:23:29;3.47;;;2.10;;
6053;SDS011;3055;50.886;14.814;2023-04-03T12:26:03;2.80;;;2.30;;
6053;SDS011;3055;50.886;14.814;2023-04-03T12:28:46;2.60;;;1.83;;
6053;SDS011;3055;50.886;14.814;2023-04-03T12:31:14;4.57;;;2.10;;
6053;SDS011;3055;50.886;14.814;2023-04-03T12:33:59;2.47;;;1.70;;
6053;SDS011;3055;50.886;14.814;2023-04-03T12:36:38;4.23;;;2.20;;
6053;SDS011;3055;50.886;14.814;2023-04-03T12:39:15;4.17;;;2.03;;
6053;SDS011;3055;50.886;14.814;2023-04-03T12:42:15;3.27;;;1.83;;
6053;SDS011;3055;50.886;14.814;2023-04-03T12:44:53;2.43;;;2.00;;
6053;SDS011;3055;50.886;14.814;2023-04-03T12:47:27;3.13;;;2.83;;
6053;SDS011;3055;50.886;14.814;2023-04-03T12:49:58;2.07;;;1.80;;
6053;SDS011;3055;50.886;14.814;2023-04-03T12:52:34;2.13;;;1.63;;
6053;SDS011;3055;50.886;14.814;2023-04-03T12:55:07;2.37;;;1.70;;
6053;SDS011;3055;50.886;14.814;2023-04-03T12:57:41;3.13;;;2.10;;
6053;SDS011;3055;50.886;14.814;2023-04-03T13:00:27;3.87;;;2.13;;
6053;SDS011;3055;50.886;14.814;2023-04-03T13:02:57;2.97;;;1.80;;
6053;SDS011;3055;50.886;14.814;2023-04-03T13:05:24;3.43;;;2.27;;
6053;SDS011;3055;50.886;14.814;2023-04-03T13:07:52;2.37;;;2.00;;
6053;SDS011;3055;50.886;14.814;2023-04-03T13:10:24;2.33;;;2.07;;
6053;SDS011;3055;50.886;14.814;2023-04-03T13:12:51;2.07;;;1.80;;
6053;SDS011;3055;50.886;14.814;2023-04-03T13:15:20;2.90;;;2.10;;
6053;SDS011;3055;50.886;14.814;2023-04-03T13:17:51;2.23;;;1.80;;
6053;SDS011;3055;50.886;14.814;2023-04-03T13:20:20;2.47;;;1.77;;
6053;SDS011;3055;50.886;14.814;2023-04-03T13:22:52;2.73;;;1.90;;
6053;SDS011;3055;50.886;14.814;2023-04-03T13:25:23;2.57;;;2.00;;
6053;SDS011;3055;50.886;14.814;2023-04-03T13:27:52;5.03;;;2.13;;
6053;SDS011;3055;50.886;14.814;2023-04-03T13:30:20;2.10;;;1.90;;
6053;SDS011;3055;50.886;14.814;2023-04-03T13:32:53;5.77;;;1.90;;
6053;SDS011;3055;50.886;14.814;2023-04-03T13:35:28;3.50;;;2.00;;
6053;SDS011;3055;50.886;14.814;2023-04-03T13:38:00;2.90;;;1.93;;
6053;SDS011;3055;50.886;14.814;2023-04-03T13:40:29;3.30;;;1.93;;
6053;SDS011;3055;50.886;14.814;2023-04-03T13:43:04;2.73;;;2.27;;
6053;SDS011;3055;50.886;14.814;2023-04-03T13:45:34;2.33;;;1.90;;
6053;SDS011;3055;50.886;14.814;2023-04-03T13:48:09;2.37;;;1.87;;
6053;SDS011;3055;50.886;14.814;2023-04-03T13:50:50;3.37;;;2.13;;
6053;SDS011;3055;50.886;14.814;2023-04-03T13:53:25;2.23;;;2.10;;
6053;SDS011;3055;50.886;14.814;2023-04-03T13:58:51;2.50;;;2.30;;
6053;SDS011;3055;50.886;14.814;2023-04-03T14:01:23;2.97;;;1.80;;
6053;SDS011;3055;50.886;14.814;2023-04-03T14:03:53;3.73;;;2.20;;
6053;SDS011;3055;50.886;14.814;2023-04-03T14:06:22;3.27;;;2.20;;
6053;SDS011;3055;50.886;14.814;2023-04-03T14:08:49;2.73;;;2.30;;
6053;SDS011;3055;50.886;14.814;2023-04-03T14:11:18;4.97;;;2.40;;
6053;SDS011;3055;50.886;14.814;2023-04-03T14:13:47;3.63;;;1.90;;
6053;SDS011;3055;50.886;14.814;2023-04-03T14:16:16;2.20;;;2.10;;
6053;SDS011;3055;50.886;14.814;2023-04-03T14:18:47;1.87;;;1.77;;
6053;SDS011;3055;50.886;14.814;2023-04-03T14:21:17;2.07;;;1.97;;
6053;SDS011;3055;50.886;14.814;2023-04-03T14:23:46;4.83;;;2.17;;
6053;SDS011;3055;50.886;14.814;2023-04-03T14:26:14;3.13;;;1.90;;
6053;SDS011;3055;50.886;14.814;2023-04-03T14:28:43;3.43;;;1.93;;
6053;SDS011;3055;50.886;14.814;2023-04-03T14:31:12;2.40;;;2.17;;
6053;SDS011;3055;50.886;14.814;2023-04-03T14:33:40;3.30;;;2.07;;
6053;SDS011;3055;50.886;14.814;2023-04-03T14:36:12;2.43;;;1.90;;
6053;SDS011;3055;50.886;14.814;2023-04-03T14:38:41;3.53;;;2.10;;
6053;SDS011;3055;50.886;14.814;2023-04-03T14:41:10;5.53;;;2.23;;
6053;SDS011;3055;50.886;14.814;2023-04-03T14:43:39;2.10;;;1.90;;
6053;SDS011;3055;50.886;14.814;2023-04-03T14:46:09;2.57;;;2.00;;
6053;SDS011;3055;50.886;14.814;2023-04-03T14:48:39;3.03;;;2.00;;
6053;SDS011;3055;50.886;14.814;2023-04-03T14:51:06;3.17;;;1.87;;
6053;SDS011;3055;50.886;14.814;2023-04-03T14:53:37;3.40;;;2.40;;
6053;SDS011;3055;50.886;14.814;2023-04-03T14:56:10;5.27;;;2.20;;
6053;SDS011;3055;50.886;14.814;2023-04-03T14:58:38;3.20;;;2.37;;
6053;SDS011;3055;50.886;14.814;2023-04-03T15:01:05;3.57;;;2.10;;
6053;SDS011;3055;50.886;14.814;2023-04-03T15:03:32;2.80;;;1.97;;
6053;SDS011;3055;50.886;14.814;2023-04-03T15:05:59;4.87;;;1.90;;
6053;SDS011;3055;50.886;14.814;2023-04-03T15:08:27;2.90;;;2.10;;
6053;SDS011;3055;50.886;14.814;2023-04-03T15:10:57;2.47;;;2.20;;
6053;SDS011;3055;50.886;14.814;2023-04-03T15:13:24;2.27;;;2.07;;
6053;SDS011;3055;50.886;14.814;2023-04-03T15:15:51;3.90;;;2.13;;
6053;SDS011;3055;50.886;14.814;2023-04-03T15:18:20;4.63;;;2.40;;
6053;SDS011;3055;50.886;14.814;2023-04-03T15:20:48;2.83;;;2.37;;
6053;SDS011;3055;50.886;14.814;2023-04-03T15:23:16;4.60;;;2.50;;
6053;SDS011;3055;50.886;14.814;2023-04-03T15:25:43;8.50;;;2.53;;
6053;SDS011;3055;50.886;14.814;2023-04-03T15:28:17;2.67;;;2.13;;
6053;SDS011;3055;50.886;14.814;2023-04-03T15:30:46;2.70;;;2.50;;
6053;SDS011;3055;50.886;14.814;2023-04-03T15:33:13;3.50;;;2.90;;
6053;SDS011;3055;50.886;14.814;2023-04-03T15:35:40;3.07;;;2.37;;
6053;SDS011;3055;50.886;14.814;2023-04-03T15:38:08;3.90;;;2.00;;
6053;SDS011;3055;50.886;14.814;2023-04-03T15:40:35;2.73;;;2.20;;